createdAt,value
2023-04-03T00:00:02.503Z,58.26
2023-04-03T00:02:30.271Z,57.96
2023-04-03T00:04:56.692Z,57.72
2023-04-03T00:07:23.149Z,58.00
2023-04-03T00:09:49.540Z,57.85
2023-04-03T00:12:15.982Z,58.00
2023-04-03T00:14:42.643Z,57.75
2023-04-03T00:17:09.514Z,57.89
2023-04-03T00:19:36.333Z,58.04
2023-04-03T00:22:02.789Z,57.79
2023-04-03T00:24:29.083Z,58.03
2023-04-03T00:26:55.404Z,57.77
2023-04-03T00:29:21.761Z,57.93
2023-04-03T00:31:48.056Z,57.95
2023-04-03T00:34:14.413Z,58.01
2023-04-03T00:36:40.789Z,57.81
2023-04-03T00:39:07.452Z,57.86
2023-04-03T00:41:33.794Z,57.94
2023-04-03T00:44:00.129Z,57.90
2023-04-03T00:46:26.639Z,58.11
2023-04-03T00:48:53.549Z,57.89
2023-04-03T00:51:19.899Z,57.97
2023-04-03T00:53:46.234Z,57.95
2023-04-03T00:56:12.603Z,57.88
2023-04-03T00:58:38.992Z,57.85
2023-04-03T01:01:05.922Z,57.90
2023-04-03T01:03:33.096Z,57.89
2023-04-03T01:06:00.565Z,57.71
2023-04-03T01:08:27.098Z,57.73
2023-04-03T01:10:53.542Z,58.02
2023-04-03T01:13:19.904Z,57.89
2023-04-03T01:15:46.644Z,57.61
2023-04-03T01:18:13.006Z,57.81
2023-04-03T01:20:39.636Z,57.77
2023-04-03T01:23:06.460Z,57.92
2023-04-03T01:25:32.838Z,57.87
2023-04-03T01:27:59.480Z,57.69
2023-04-03T01:30:26.077Z,57.69
2023-04-03T01:32:52.615Z,57.59
2023-04-03T01:35:18.972Z,57.86
2023-04-03T01:37:45.263Z,57.82
2023-04-03T01:40:11.625Z,57.88
2023-04-03T01:42:38.185Z,57.86
2023-04-03T01:45:04.594Z,57.76
2023-04-03T01:47:30.935Z,57.61
2023-04-03T01:49:57.417Z,57.63
2023-04-03T01:52:23.963Z,57.82
2023-04-03T01:54:50.330Z,57.68
2023-04-03T01:57:16.859Z,57.73
2023-04-03T01:59:43.425Z,57.89
2023-04-03T02:02:10.087Z,57.83
2023-04-03T02:04:36.500Z,57.63
2023-04-03T02:07:02.967Z,57.70
2023-04-03T02:09:29.558Z,57.93
2023-04-03T02:11:55.918Z,57.81
2023-04-03T02:14:22.292Z,57.88
2023-04-03T02:16:48.724Z,57.46
2023-04-03T02:19:15.270Z,57.59
2023-04-03T02:21:41.875Z,57.69
2023-04-03T02:24:08.679Z,57.65
2023-04-03T02:26:35.268Z,57.94
2023-04-03T02:29:01.669Z,57.76
2023-04-03T02:31:28.015Z,57.99
2023-04-03T02:33:55.295Z,57.64
2023-04-03T02:36:21.649Z,57.79
2023-04-03T02:38:48.031Z,57.80
2023-04-03T02:41:14.604Z,57.67
2023-04-03T02:43:41.034Z,57.59
2023-04-03T02:46:08.025Z,57.49
2023-04-03T02:48:34.750Z,57.81
2023-04-03T02:51:01.228Z,57.74
2023-04-03T02:53:27.673Z,57.73
2023-04-03T02:55:54.202Z,57.72
2023-04-03T02:58:21.109Z,57.51
2023-04-03T03:00:47.627Z,57.71
2023-04-03T03:03:14.777Z,57.87
2023-04-03T03:05:41.096Z,57.80
2023-04-03T03:08:07.400Z,57.67
2023-04-03T03:10:33.847Z,57.54
2023-04-03T03:13:00.180Z,57.72
2023-04-03T03:15:26.611Z,57.63
2023-04-03T03:17:52.973Z,57.66
2023-04-03T03:20:19.424Z,57.81
2023-04-03T03:22:45.905Z,57.44
2023-04-03T03:25:12.306Z,57.58
2023-04-03T03:27:38.667Z,57.44
2023-04-03T03:30:05.054Z,57.39
2023-04-03T03:32:31.784Z,57.37
2023-04-03T03:34:58.169Z,57.49
2023-04-03T03:37:24.486Z,57.47
2023-04-03T03:39:51.041Z,57.10
2023-04-03T03:42:17.565Z,57.21
2023-04-03T03:44:44.173Z,57.44
2023-04-03T03:47:10.511Z,57.37
2023-04-03T03:49:36.830Z,57.08
2023-04-03T03:52:03.334Z,57.39
2023-04-03T03:54:29.633Z,57.52
2023-04-03T03:56:56.048Z,57.19
2023-04-03T03:59:22.565Z,57.38
2023-04-03T04:01:48.916Z,57.37
2023-04-03T04:04:15.405Z,57.53
2023-04-03T04:06:41.800Z,57.49
2023-04-03T04:09:08.121Z,57.51
2023-04-03T04:11:34.635Z,57.58
2023-04-03T04:14:01.021Z,57.53
2023-04-03T04:16:27.418Z,57.73
2023-04-03T04:18:54.005Z,57.46
2023-04-03T04:21:20.478Z,57.03
2023-04-03T04:23:46.771Z,57.37
2023-04-03T04:26:13.257Z,57.39
2023-04-03T04:28:39.612Z,57.40
2023-04-03T04:31:06.398Z,57.14
2023-04-03T04:33:33.057Z,57.34
2023-04-03T04:35:59.670Z,57.26
2023-04-03T04:38:26.397Z,57.30
2023-04-03T04:40:52.702Z,57.31
2023-04-03T04:43:19.566Z,57.24
2023-04-03T04:45:46.041Z,57.42
2023-04-03T04:48:12.610Z,57.29
2023-04-03T04:50:39.028Z,57.13
2023-04-03T04:53:05.298Z,56.90
2023-04-03T04:55:31.625Z,57.32
2023-04-03T04:57:57.974Z,57.35
2023-04-03T05:00:24.430Z,57.12
2023-04-03T05:02:51.094Z,57.15
2023-04-03T05:05:17.531Z,56.99
2023-04-03T05:07:44.010Z,57.05
2023-04-03T05:10:10.352Z,57.47
2023-04-03T05:12:36.671Z,57.43
2023-04-03T05:15:02.998Z,57.10
2023-04-03T05:17:29.654Z,57.16
2023-04-03T05:19:56.051Z,57.21
2023-04-03T05:22:22.498Z,57.00
2023-04-03T05:24:48.958Z,57.34
2023-04-03T05:27:15.390Z,57.30
2023-04-03T05:29:42.599Z,57.21
2023-04-03T05:32:10.126Z,57.44
2023-04-03T05:34:36.503Z,57.36
2023-04-03T05:37:02.815Z,57.17
2023-04-03T05:39:29.410Z,55.86
2023-04-03T05:41:56.139Z,55.95
2023-04-03T05:44:22.481Z,55.85
2023-04-03T05:46:48.864Z,56.19
2023-04-03T05:49:15.556Z,56.12
2023-04-03T05:51:41.848Z,56.29
2023-04-03T05:54:08.191Z,56.26
2023-04-03T05:56:34.606Z,56.55
2023-04-03T05:59:01.024Z,56.42
2023-04-03T06:01:27.391Z,56.54
2023-04-03T06:03:54.014Z,56.63
2023-04-03T06:06:20.538Z,56.50
2023-04-03T06:08:47.024Z,56.59
2023-04-03T06:11:13.382Z,56.39
2023-04-03T06:13:40.036Z,56.49
2023-04-03T06:16:06.562Z,56.31
2023-04-03T06:18:32.947Z,56.13
2023-04-03T06:20:59.490Z,56.21
2023-04-03T06:23:25.936Z,56.21
2023-04-03T06:25:52.426Z,56.33
2023-04-03T06:28:18.777Z,56.39
2023-04-03T06:30:45.211Z,56.14
2023-04-03T06:33:11.815Z,56.03
2023-04-03T06:35:38.335Z,56.15
2023-04-03T06:38:04.754Z,55.93
2023-04-03T06:40:31.190Z,55.63
2023-04-03T06:42:57.510Z,55.96
2023-04-03T06:45:23.870Z,55.73
2023-04-03T06:47:50.272Z,55.71
2023-04-03T06:50:16.663Z,55.57
2023-04-03T06:52:43.222Z,55.53
2023-04-03T06:55:10.199Z,55.46
2023-04-03T06:57:36.683Z,55.33
2023-04-03T07:00:03.027Z,55.42
2023-04-03T07:02:29.625Z,55.64
2023-04-03T07:04:56.207Z,55.75
2023-04-03T07:07:23.047Z,55.75
2023-04-03T07:09:49.366Z,55.58
2023-04-03T07:12:15.785Z,55.67
2023-04-03T07:14:42.307Z,55.30
2023-04-03T07:17:09.196Z,55.54
2023-04-03T07:19:35.749Z,55.56
2023-04-03T07:22:02.118Z,55.42
2023-04-03T07:24:28.791Z,55.72
2023-04-03T07:26:55.239Z,55.33
2023-04-03T07:29:21.709Z,55.15
2023-04-03T07:31:48.112Z,55.27
2023-04-03T07:34:14.926Z,55.54
2023-04-03T07:36:41.326Z,55.37
2023-04-03T07:39:07.722Z,55.40
2023-04-03T07:41:34.084Z,55.45
2023-04-03T07:44:00.855Z,55.36
2023-04-03T07:46:28.111Z,55.84
2023-04-03T07:48:55.272Z,55.53
2023-04-03T07:51:23.427Z,55.76
2023-04-03T07:53:49.805Z,55.41
2023-04-03T07:56:16.515Z,55.84
2023-04-03T07:58:42.801Z,55.36
2023-04-03T08:01:10.215Z,55.50
2023-04-03T08:03:37.147Z,55.58
2023-04-03T08:06:03.716Z,55.51
2023-04-03T08:08:30.158Z,55.68
2023-04-03T08:10:56.478Z,55.44
2023-04-03T08:13:23.099Z,55.54
2023-04-03T08:15:49.913Z,55.49
2023-04-03T08:18:16.286Z,55.50
2023-04-03T08:20:42.937Z,55.63
2023-04-03T08:23:09.302Z,55.59
2023-04-03T08:25:36.188Z,55.22
2023-04-03T08:28:03.590Z,55.63
2023-04-03T08:30:29.911Z,55.30
2023-04-03T08:32:56.350Z,55.36
2023-04-03T08:35:22.834Z,55.36
2023-04-03T08:37:49.103Z,55.47
2023-04-03T08:40:15.524Z,55.23
2023-04-03T08:42:42.821Z,54.63
2023-04-03T08:45:09.394Z,54.93
2023-04-03T08:47:36.701Z,54.83
2023-04-03T08:50:03.356Z,55.02
2023-04-03T08:52:30.125Z,54.59
2023-04-03T08:54:56.388Z,54.63
2023-04-03T08:57:23.212Z,54.53
2023-04-03T08:59:49.631Z,54.67
2023-04-03T09:02:16.016Z,54.61
2023-04-03T09:04:42.492Z,54.41
2023-04-03T09:07:08.890Z,54.49
2023-04-03T09:09:35.261Z,54.57
2023-04-03T09:12:01.611Z,54.72
2023-04-03T09:14:28.124Z,54.50
2023-04-03T09:16:54.480Z,54.19
2023-04-03T09:19:20.930Z,54.21
2023-04-03T09:21:47.353Z,54.32
2023-04-03T09:24:13.756Z,54.47
2023-04-03T09:26:40.687Z,54.44
2023-04-03T09:29:07.722Z,54.24
2023-04-03T09:31:34.312Z,54.26
2023-04-03T09:34:00.823Z,54.04
2023-04-03T09:36:27.510Z,54.06
2023-04-03T09:38:54.569Z,54.06
2023-04-03T09:41:20.990Z,53.82
2023-04-03T09:43:47.351Z,53.82
2023-04-03T09:46:13.723Z,53.62
2023-04-03T09:48:40.106Z,53.82
2023-04-03T09:51:06.580Z,53.93
2023-04-03T09:53:33.567Z,54.05
2023-04-03T09:55:59.974Z,54.38
2023-04-03T09:58:28.110Z,54.40
2023-04-03T10:00:58.358Z,54.39
2023-04-03T10:03:24.790Z,54.08
2023-04-03T10:05:51.185Z,54.13
2023-04-03T10:08:17.555Z,54.25
2023-04-03T10:10:43.923Z,53.93
2023-04-03T10:13:12.208Z,53.66
2023-04-03T10:15:40.876Z,54.14
2023-04-03T10:18:21.668Z,53.95
2023-04-03T10:20:50.673Z,53.87
2023-04-03T10:23:17.357Z,53.91
2023-04-03T10:25:43.827Z,53.68
2023-04-03T10:28:10.141Z,53.68
2023-04-03T10:30:36.849Z,53.94
2023-04-03T10:33:03.873Z,53.97
2023-04-03T10:35:30.718Z,53.92
2023-04-03T10:37:57.020Z,53.78
2023-04-03T10:40:23.401Z,53.81
2023-04-03T10:42:50.096Z,54.05
2023-04-03T10:45:16.702Z,54.03
2023-04-03T10:47:43.117Z,53.80
2023-04-03T10:50:09.752Z,53.80
2023-04-03T10:52:36.121Z,53.75
2023-04-03T10:55:02.625Z,53.85
2023-04-03T10:57:29.338Z,53.58
2023-04-03T10:59:55.699Z,53.99
2023-04-03T11:02:22.238Z,53.75
2023-04-03T11:04:48.839Z,53.77
2023-04-03T11:07:15.142Z,53.80
2023-04-03T11:09:41.534Z,53.80
2023-04-03T11:12:07.953Z,53.89
2023-04-03T11:14:34.482Z,53.98
2023-04-03T11:17:01.182Z,54.20
2023-04-03T11:19:28.199Z,54.04
2023-04-03T11:21:55.141Z,54.26
2023-04-03T11:24:21.536Z,54.29
2023-04-03T11:26:47.916Z,54.14
2023-04-03T11:29:18.036Z,54.20
2023-04-03T11:31:51.349Z,54.18
2023-04-03T11:34:18.116Z,54.20
2023-04-03T11:36:44.580Z,54.04
2023-04-03T11:39:11.386Z,53.89
2023-04-03T11:41:38.009Z,54.35
2023-04-03T11:44:04.454Z,54.18
2023-04-03T11:46:30.952Z,53.99
2023-04-03T11:48:57.353Z,54.02
2023-04-03T11:51:23.987Z,54.13
2023-04-03T11:53:50.314Z,54.02
2023-04-03T11:56:16.681Z,54.32
2023-04-03T11:58:43.004Z,54.09
2023-04-03T12:01:09.288Z,54.10
2023-04-03T12:03:35.674Z,54.04
2023-04-03T12:06:02.268Z,54.05
2023-04-03T12:08:28.652Z,54.22
2023-04-03T12:10:55.241Z,53.94
2023-04-03T12:13:21.816Z,54.08
2023-04-03T12:15:48.175Z,54.12
2023-04-03T12:18:14.620Z,54.10
2023-04-03T12:20:41.795Z,54.05
2023-04-03T12:23:08.167Z,53.90
2023-04-03T12:25:34.815Z,54.10
2023-04-03T12:28:01.325Z,53.98
2023-04-03T12:30:28.003Z,54.08
2023-04-03T12:33:05.689Z,54.00
2023-04-03T12:35:36.893Z,54.15
2023-04-03T12:38:04.017Z,53.95
2023-04-03T12:40:30.310Z,54.02
2023-04-03T12:42:57.330Z,53.99
2023-04-03T12:45:23.642Z,54.22
2023-04-03T12:47:50.171Z,54.06
2023-04-03T12:50:16.519Z,54.15
2023-04-03T12:52:43.286Z,54.04
2023-04-03T12:55:09.877Z,54.03
2023-04-03T12:57:36.878Z,54.18
2023-04-03T13:00:03.326Z,53.74
2023-04-03T13:02:30.475Z,53.88
2023-04-03T13:04:57.146Z,53.92
2023-04-03T13:07:23.758Z,54.24
2023-04-03T13:09:50.562Z,54.22
2023-04-03T13:12:17.218Z,54.13
2023-04-03T13:14:44.053Z,54.18
2023-04-03T13:17:10.367Z,54.34
2023-04-03T13:19:37.059Z,54.42
2023-04-03T13:22:03.460Z,54.54
2023-04-03T13:24:30.073Z,53.97
2023-04-03T13:26:56.477Z,54.58
2023-04-03T13:29:29.853Z,54.87
2023-04-03T13:31:57.232Z,54.89
2023-04-03T13:34:23.665Z,55.11
2023-04-03T13:36:50.098Z,55.36
2023-04-03T13:39:16.606Z,55.71
2023-04-03T13:41:43.056Z,55.86
2023-04-03T13:44:12.511Z,55.94
2023-04-03T13:46:39.202Z,56.03
2023-04-03T13:49:05.781Z,56.10
2023-04-03T13:51:32.399Z,56.38
2023-04-03T13:53:59.192Z,56.19
2023-04-03T13:56:25.495Z,56.39
2023-04-03T13:58:51.983Z,56.29
2023-04-03T14:01:18.537Z,56.39
2023-04-03T14:03:44.966Z,56.74
2023-04-03T14:06:12.096Z,56.93
2023-04-03T14:08:43.271Z,57.04
2023-04-03T14:11:10.357Z,57.09
2023-04-03T14:13:36.637Z,57.08
2023-04-03T14:16:14.999Z,57.03
2023-04-03T14:18:42.220Z,57.05
2023-04-03T14:21:08.623Z,57.32
2023-04-03T14:23:35.020Z,57.36
2023-04-03T14:26:01.527Z,57.62
2023-04-03T14:28:27.936Z,57.40
2023-04-03T14:30:54.359Z,57.29
2023-04-03T14:33:20.700Z,57.44
2023-04-03T14:35:47.035Z,57.38
2023-04-03T14:38:13.494Z,57.18
2023-04-03T14:40:39.997Z,57.28
2023-04-03T14:43:06.765Z,57.13
2023-04-03T14:45:33.114Z,57.22
2023-04-03T14:47:59.625Z,57.22
2023-04-03T14:50:26.146Z,57.28
2023-04-03T14:52:52.552Z,57.25
2023-04-03T14:55:18.998Z,57.30
2023-04-03T14:57:45.647Z,57.48
2023-04-03T15:00:12.040Z,57.59
2023-04-03T15:02:38.870Z,57.54
2023-04-03T15:05:05.663Z,57.36
2023-04-03T15:07:32.099Z,57.36
2023-04-03T15:09:58.494Z,57.70
2023-04-03T15:12:24.865Z,57.64
2023-04-03T15:14:57.414Z,57.60
2023-04-03T15:17:27.367Z,57.55
2023-04-03T15:19:53.857Z,57.53
2023-04-03T15:22:20.320Z,57.72
2023-04-03T15:24:47.030Z,57.41
2023-04-03T15:27:13.420Z,57.73
2023-04-03T15:29:40.420Z,57.80
2023-04-03T15:32:06.880Z,57.76
2023-04-03T15:34:33.276Z,57.74
2023-04-03T15:36:59.660Z,57.65
2023-04-03T15:39:26.051Z,57.55
2023-04-03T15:41:52.433Z,57.67
2023-04-03T15:44:18.851Z,57.82
2023-04-03T15:46:45.248Z,57.79
2023-04-03T15:49:11.790Z,57.74
2023-04-03T15:51:38.448Z,57.94
2023-04-03T15:54:04.893Z,57.98
2023-04-03T15:56:31.217Z,57.91
2023-04-03T15:58:57.868Z,57.87
2023-04-03T16:01:24.461Z,57.94
2023-04-03T16:03:50.892Z,57.81
2023-04-03T16:06:18.189Z,58.04
2023-04-03T16:08:44.490Z,57.96
2023-04-03T16:11:11.346Z,58.13
2023-04-03T16:13:37.955Z,58.10
2023-04-03T16:16:04.576Z,58.10
2023-04-03T16:18:31.195Z,58.21
2023-04-03T16:20:57.980Z,58.10
2023-04-03T16:23:24.324Z,58.09
2023-04-03T16:25:50.618Z,58.01
2023-04-03T16:28:17.089Z,58.25
2023-04-03T16:30:43.470Z,58.16
2023-04-03T16:33:09.838Z,58.11
2023-04-03T16:35:36.460Z,58.13
2023-04-03T16:38:03.060Z,58.15
2023-04-03T16:40:29.677Z,57.92
2023-04-03T16:42:56.274Z,57.93
2023-04-03T16:45:22.578Z,57.77
2023-04-03T16:47:48.995Z,57.86
2023-04-03T16:50:15.682Z,58.11
2023-04-03T16:52:42.382Z,58.06
2023-04-03T16:55:09.144Z,58.02
2023-04-03T16:57:35.778Z,58.03
2023-04-03T17:00:02.128Z,58.25
2023-04-03T17:02:28.676Z,57.97
2023-04-03T17:04:55.037Z,57.84
2023-04-03T17:07:21.675Z,57.93
2023-04-03T17:09:48.276Z,58.13
2023-04-03T17:12:15.878Z,57.60
2023-04-03T17:14:42.252Z,57.70
2023-04-03T17:17:08.810Z,57.81
2023-04-03T17:19:35.746Z,57.54
2023-04-03T17:22:02.053Z,57.54
2023-04-03T17:24:28.442Z,58.11
2023-04-03T17:26:55.240Z,57.96
2023-04-03T17:29:21.647Z,57.80
2023-04-03T17:31:48.160Z,57.71
2023-04-03T17:34:14.644Z,57.46
2023-04-03T17:36:41.728Z,57.50
2023-04-03T17:39:08.355Z,57.49
2023-04-03T17:41:35.285Z,57.48
2023-04-03T17:44:01.663Z,57.56
2023-04-03T17:46:28.110Z,57.62
2023-04-03T17:48:54.618Z,57.33
2023-04-03T17:51:20.972Z,57.60
2023-04-03T17:53:47.308Z,56.99
2023-04-03T17:56:13.893Z,57.07
2023-04-03T17:58:40.402Z,56.96
2023-04-03T18:01:07.260Z,56.80
2023-04-03T18:03:33.590Z,56.97
2023-04-03T18:05:59.958Z,56.94
2023-04-03T18:08:26.311Z,57.09
2023-04-03T18:10:52.890Z,57.00
2023-04-03T18:13:20.209Z,56.87
2023-04-03T18:15:46.672Z,56.09
2023-04-03T18:18:13.138Z,56.25
2023-04-03T18:20:39.590Z,56.35
2023-04-03T18:23:06.174Z,56.13
2023-04-03T18:28:03.849Z,56.07
2023-04-03T18:30:30.168Z,56.25
2023-04-03T18:32:56.537Z,56.06
2023-04-03T18:35:23.114Z,56.17
2023-04-03T18:37:49.991Z,55.83
2023-04-03T18:40:16.494Z,55.99
2023-04-03T18:42:42.885Z,55.93
2023-04-03T18:45:09.576Z,55.78
2023-04-03T18:47:36.258Z,55.88
2023-04-03T18:50:02.941Z,55.59
2023-04-03T18:52:29.372Z,55.52
2023-04-03T18:54:55.716Z,55.51
2023-04-03T18:57:22.166Z,55.38
2023-04-03T18:59:48.554Z,55.41
2023-04-03T19:02:14.982Z,55.36
2023-04-03T19:04:41.515Z,55.47
2023-04-03T19:07:07.875Z,55.26
2023-04-03T19:09:34.266Z,55.11
2023-04-03T19:12:00.770Z,54.85
2023-04-03T19:14:27.115Z,54.86
2023-04-03T19:16:53.574Z,54.93
2023-04-03T19:19:19.962Z,55.06
2023-04-03T19:21:46.266Z,54.88
2023-04-03T19:24:12.638Z,54.76
2023-04-03T19:26:39.173Z,54.68
2023-04-03T19:29:05.802Z,54.74
2023-04-03T19:31:32.474Z,54.30
2023-04-03T19:33:58.847Z,54.39
2023-04-03T19:36:25.394Z,54.53
2023-04-03T19:38:51.870Z,54.47
2023-04-03T19:41:18.236Z,54.58
2023-04-03T19:43:45.035Z,54.02
2023-04-03T19:46:11.511Z,54.42
2023-04-03T19:48:37.922Z,54.15
2023-04-03T19:51:04.339Z,54.33
2023-04-03T19:53:30.814Z,54.34
2023-04-03T19:55:57.172Z,53.95
2023-04-03T19:58:23.642Z,53.92
2023-04-03T20:00:50.089Z,53.83
2023-04-03T20:03:16.606Z,53.71
2023-04-03T20:05:42.942Z,53.90
2023-04-03T20:08:09.437Z,53.88
2023-04-03T20:10:35.826Z,53.61
2023-04-03T20:13:02.186Z,54.00
2023-04-03T20:15:28.823Z,53.65
2023-04-03T20:17:55.533Z,53.75
2023-04-03T20:20:21.906Z,53.84
2023-04-03T20:22:48.321Z,53.79
2023-04-03T20:25:17.491Z,53.72
2023-04-03T20:27:50.425Z,53.66
2023-04-03T20:30:16.882Z,53.74
2023-04-03T20:32:43.326Z,53.54
2023-04-03T20:35:09.694Z,53.85
2023-04-03T20:37:36.099Z,53.53
2023-04-03T20:40:02.943Z,53.80
2023-04-03T20:42:29.297Z,53.85
2023-04-03T20:44:55.630Z,53.77
2023-04-03T20:47:22.239Z,53.83
2023-04-03T20:49:49.460Z,53.72
2023-04-03T20:52:16.055Z,53.90
2023-04-03T20:54:42.682Z,53.56
2023-04-03T20:57:09.279Z,53.88
2023-04-03T20:59:35.692Z,53.76
2023-04-03T21:02:02.287Z,53.86
2023-04-03T21:04:28.650Z,54.13
2023-04-03T21:06:55.674Z,53.79
2023-04-03T21:09:22.073Z,53.80
2023-04-03T21:11:48.402Z,53.88
2023-04-03T21:14:14.940Z,53.73
2023-04-03T21:16:41.452Z,53.81
2023-04-03T21:19:07.836Z,53.93
2023-04-03T21:21:34.641Z,53.62
2023-04-03T21:24:01.605Z,53.58
2023-04-03T21:26:28.124Z,53.94
2023-04-03T21:28:54.640Z,53.87
2023-04-03T21:31:21.366Z,53.81
2023-04-03T21:33:47.923Z,53.98
2023-04-03T21:36:14.413Z,53.92
2023-04-03T21:38:41.190Z,53.86
2023-04-03T21:41:07.661Z,53.94
2023-04-03T21:43:34.260Z,54.00
2023-04-03T21:46:00.714Z,53.85
2023-04-03T21:48:27.082Z,53.96
2023-04-03T21:50:54.484Z,53.79
2023-04-03T21:53:20.934Z,53.94
2023-04-03T21:55:47.650Z,53.86
2023-04-03T21:58:14.032Z,53.92
2023-04-03T22:00:40.674Z,53.81
2023-04-03T22:03:10.293Z,53.92
2023-04-03T22:05:37.734Z,53.87
2023-04-03T22:08:04.114Z,53.78
2023-04-03T22:10:30.503Z,54.17
2023-04-03T22:12:57.219Z,54.11
2023-04-03T22:15:23.605Z,54.01
2023-04-03T22:17:50.107Z,53.91
2023-04-03T22:20:16.552Z,53.90
2023-04-03T22:22:43.431Z,54.19
2023-04-03T22:25:10.080Z,53.96
2023-04-03T22:27:36.549Z,53.81
2023-04-03T22:30:03.082Z,54.14
2023-04-03T22:32:29.686Z,53.79
2023-04-03T22:34:56.040Z,53.81
2023-04-03T22:37:22.362Z,53.86
2023-04-03T22:39:48.817Z,53.89
2023-04-03T22:42:15.737Z,53.94
2023-04-03T22:44:42.220Z,53.87
2023-04-03T22:47:08.852Z,54.00
2023-04-03T22:49:35.592Z,53.78
2023-04-03T22:52:02.045Z,53.94
2023-04-03T22:54:28.626Z,54.13
2023-04-03T22:56:55.161Z,53.60
2023-04-03T22:59:21.772Z,54.03
2023-04-03T23:01:48.465Z,53.89
2023-04-03T23:04:14.975Z,53.72
2023-04-03T23:06:41.346Z,53.83
2023-04-03T23:09:07.870Z,53.94
2023-04-03T23:11:34.355Z,53.79
2023-04-03T23:14:01.010Z,53.89
2023-04-03T23:16:27.392Z,53.91
2023-04-03T23:18:53.778Z,53.91
2023-04-03T23:21:20.291Z,53.75
2023-04-03T23:23:46.881Z,53.98
2023-04-03T23:26:13.366Z,54.05
2023-04-03T23:28:39.793Z,54.04
2023-04-03T23:31:06.368Z,53.78
2023-04-03T23:33:32.958Z,53.76
2023-04-03T23:35:59.398Z,53.87
2023-04-03T23:38:25.796Z,53.70
2023-04-03T23:40:52.560Z,53.81
2023-04-03T23:43:19.082Z,53.69
2023-04-03T23:45:45.504Z,53.64
2023-04-03T23:48:11.909Z,53.65
2023-04-03T23:50:38.511Z,53.98
2023-04-03T23:53:05.094Z,53.98
2023-04-03T23:55:31.746Z,53.86
2023-04-03T23:57:58.166Z,53.80
